Time;durP1;ratioP1;P1;durP2;ratioP2;P2;SDS_P1;SDS_P2;PMS_P1;PMS_P2;Temp;Humidity;BMP_temperature;BMP_pressure;BME280_temperature;BME280_humidity;BME280_pressure;Samples;Min_cycle;Max_cycle;Signal;HPM_P1;HPM_P2
2022/08/13 00:00:36;;;;;;;2.40;2.17;;;13.70;99.90;;;;;;5038806;28;20191;-81
2022/08/13 00:03:02;;;;;;;3.23;2.50;;;;;;;;;;5037265;28;20599;-82
2022/08/13 00:05:28;;;;;;;3.23;2.20;;;13.60;99.90;;;;;;5038446;28;20179;-81
2022/08/13 00:07:54;;;;;;;3.73;2.40;;;13.60;99.90;;;;;;5037376;28;20265;-82
2022/08/13 00:10:30;;;;;;;2.53;2.00;;;13.70;99.90;;;;;;5038420;28;20292;-82
2022/08/13 00:12:57;;;;;;;2.53;2.23;;;13.50;99.90;;;;;;5037291;28;20542;-81
2022/08/13 00:15:27;;;;;;;5.43;2.60;;;;;;;;;;5038761;28;20194;-81
2022/08/13 00:17:57;;;;;;;3.67;2.40;;;13.30;99.90;;;;;;5036817;28;20183;-81
2022/08/13 00:20:26;;;;;;;2.40;2.20;;;13.40;99.90;;;;;;5038343;28;20698;-81
2022/08/13 00:22:54;;;;;;;3.10;2.50;;;13.40;99.90;;;;;;5036506;28;20193;-81
2022/08/13 00:25:20;;;;;;;6.23;2.70;;;13.30;99.90;;;;;;5038350;28;20170;-81
2022/08/13 00:27:56;;;;;;;3.27;2.30;;;13.50;99.90;;;;;;5036890;28;20182;-82
2022/08/13 00:30:33;;;;;;;3.27;2.50;;;13.50;99.90;;;;;;5037987;28;20248;-81
2022/08/13 00:33:08;;;;;;;3.83;2.97;;;13.20;99.90;;;;;;5037077;28;20204;-81
2022/08/13 00:35:37;;;;;;;2.70;2.50;;;13.20;99.90;;;;;;5039106;28;20162;-82
2022/08/13 00:38:07;;;;;;;4.67;2.73;;;13.30;99.90;;;;;;5038644;28;20538;-82
2022/08/13 00:40:33;;;;;;;4.40;2.90;;;;;;;;;;5039539;28;20205;-82
2022/08/13 00:43:04;;;;;;;3.00;2.70;;;13.20;99.90;;;;;;5039551;28;20171;-82
2022/08/13 00:45:32;;;;;;;2.80;2.60;;;13.00;99.90;;;;;;5037162;28;20170;-82
2022/08/13 00:50:43;;;;;;;3.23;2.93;;;13.20;99.90;;;;;;5038983;28;20284;-82
2022/08/13 00:53:18;;;;;;;7.63;2.90;;;13.10;99.90;;;;;;5038245;28;20177;-82
2022/08/13 00:55:48;;;;;;;2.93;2.53;;;13.00;99.90;;;;;;5040977;28;20171;-80
2022/08/13 00:58:19;;;;;;;5.20;3.00;;;13.00;99.90;;;;;;5041767;28;20166;-82
2022/08/13 01:00:50;;;;;;;4.00;3.13;;;13.00;99.90;;;;;;5035902;28;20652;-82
2022/08/13 01:03:18;;;;;;;3.57;3.07;;;12.90;99.90;;;;;;5036908;28;20178;-81
2022/08/13 01:05:47;;;;;;;3.97;3.13;;;12.80;99.90;;;;;;5037597;28;20232;-81
2022/08/13 01:08:19;;;;;;;3.97;3.13;;;12.80;99.90;;;;;;5036996;28;20568;-81
2022/08/13 01:10:47;;;;;;;3.60;3.23;;;12.70;99.90;;;;;;5036005;28;20207;-81
2022/08/13 01:13:14;;;;;;;5.77;2.93;;;12.90;99.90;;;;;;5036067;28;20640;-81
2022/08/13 01:15:41;;;;;;;3.33;3.03;;;13.00;99.90;;;;;;5037528;28;20198;-82
2022/08/13 01:18:13;;;;;;;4.23;3.23;;;12.80;99.90;;;;;;5037108;28;20193;-81
2022/08/13 01:20:59;;;;;;;3.27;2.97;;;12.80;99.90;;;;;;5036016;28;20218;-81
2022/08/13 01:23:26;;;;;;;3.63;3.20;;;;;;;;;;5036380;28;20189;-82
2022/08/13 01:25:54;;;;;;;4.03;3.20;;;;;;;;;;5038080;28;20628;-81
2022/08/13 01:28:22;;;;;;;3.93;3.10;;;12.70;99.90;;;;;;5037574;28;20171;-82
2022/08/13 01:30:50;;;;;;;3.77;3.33;;;12.60;99.90;;;;;;5036127;28;20218;-81
2022/08/13 01:33:17;;;;;;;3.70;3.40;;;;;;;;;;5036336;28;20171;-81
2022/08/13 01:35:45;;;;;;;4.60;3.30;;;12.60;99.90;;;;;;5036332;28;20174;-81
2022/08/13 01:38:12;;;;;;;3.70;2.90;;;;;;;;;;5037691;28;20181;-82
2022/08/13 01:40:38;;;;;;;3.37;3.03;;;12.50;99.90;;;;;;5036369;28;20651;-81
2022/08/13 01:43:05;;;;;;;3.10;2.80;;;12.50;99.90;;;;;;5038927;28;20194;-82
2022/08/13 01:45:31;;;;;;;3.80;3.03;;;12.60;99.90;;;;;;5041455;28;20188;-82
2022/08/13 01:50:42;;;;;;;5.00;3.10;;;12.40;99.90;;;;;;5050612;28;20205;-82
2022/08/13 01:53:14;;;;;;;5.07;3.40;;;12.40;99.90;;;;;;5037963;28;20258;-82
2022/08/13 01:55:41;;;;;;;4.00;3.00;;;12.50;99.90;;;;;;5036584;28;20220;-81
2022/08/13 01:58:13;;;;;;;3.07;2.77;;;12.40;99.90;;;;;;5041488;28;20165;-81
2022/08/13 02:00:43;;;;;;;3.20;2.80;;;12.50;99.90;;;;;;5036504;28;20194;-81
2022/08/13 02:03:11;;;;;;;4.37;3.10;;;12.70;99.90;;;;;;5035359;28;20182;-81
2022/08/13 02:05:38;;;;;;;3.53;3.23;;;12.40;99.90;;;;;;5036162;28;20170;-81
2022/08/13 02:08:09;;;;;;;4.47;3.47;;;12.40;99.90;;;;;;5035029;28;20182;-81
2022/08/13 02:10:41;;;;;;;4.63;3.30;;;12.40;99.90;;;;;;5037175;28;20210;-81
2022/08/13 02:13:11;;;;;;;4.57;3.17;;;12.40;99.90;;;;;;5036145;28;20616;-81
2022/08/13 02:15:38;;;;;;;3.47;3.13;;;12.40;99.90;;;;;;5036514;28;20595;-81
2022/08/13 02:18:04;;;;;;;3.53;3.23;;;;;;;;;;5034786;28;20184;-81
2022/08/13 02:20:35;;;;;;;5.00;3.70;;;12.40;99.90;;;;;;5034586;28;20233;-82
2022/08/13 02:23:03;;;;;;;4.23;3.20;;;12.40;99.90;;;;;;5036122;28;20232;-82
2022/08/13 02:25:29;;;;;;;5.83;3.40;;;;;;;;;;5037080;28;20617;-81
2022/08/13 02:27:56;;;;;;;3.63;3.33;;;12.40;99.90;;;;;;5036053;28;20196;-81
2022/08/13 02:30:26;;;;;;;6.37;3.50;;;12.40;99.90;;;;;;5036699;28;20190;-82
2022/08/13 02:32:52;;;;;;;6.00;4.37;;;;;;;;;;5036789;28;20699;-81
2022/08/13 02:35:18;;;;;;;5.63;3.23;;;12.40;99.90;;;;;;5036845;28;20559;-81
2022/08/13 02:37:45;;;;;;;5.40;3.77;;;;;;;;;;5034921;28;20198;-81
2022/08/13 02:42:58;;;;;;;3.50;3.13;;;12.30;99.90;;;;;;5037706;28;20165;-82
2022/08/13 02:45:25;;;;;;;3.50;3.20;;;12.20;99.90;;;;;;5036787;28;20177;-82
2022/08/13 02:47:51;;;;;;;3.30;3.00;;;12.30;99.90;;;;;;5038649;28;20262;-81
2022/08/13 02:50:20;;;;;;;3.90;3.50;;;12.40;99.90;;;;;;5047868;28;20222;-81
2022/08/13 02:52:51;;;;;;;4.00;3.60;;;12.30;99.90;;;;;;5043784;28;20633;-82
2022/08/13 02:55:22;;;;;;;4.83;3.50;;;12.30;99.90;;;;;;5045408;28;20248;-81
2022/08/13 02:57:48;;;;;;;3.60;3.30;;;;;;;;;;5045386;28;20301;-81
2022/08/13 03:00:15;;;;;;;3.90;3.60;;;;;;;;;;5040050;28;20198;-81
2022/08/13 03:02:43;;;;;;;5.43;3.40;;;12.10;99.90;;;;;;5034093;28;20675;-81
2022/08/13 03:05:12;;;;;;;4.03;3.23;;;12.10;99.90;;;;;;5034412;28;20616;-81
2022/08/13 03:07:41;;;;;;;4.93;3.13;;;12.00;99.90;;;;;;5035315;28;20178;-81
2022/08/13 03:10:11;;;;;;;3.57;2.73;;;12.00;99.90;;;;;;5039078;28;20209;-81
2022/08/13 03:12:44;;;;;;;3.73;3.20;;;12.00;99.90;;;;;;5038153;28;20167;-81
2022/08/13 03:15:11;;;;;;;4.40;3.23;;;11.90;99.90;;;;;;5037961;28;20198;-81
2022/08/13 03:17:38;;;;;;;5.27;3.50;;;11.90;99.90;;;;;;5039702;28;20166;-81
2022/08/13 03:20:09;;;;;;;3.53;3.23;;;11.80;99.90;;;;;;5039262;28;20260;-82
2022/08/13 03:22:56;;;;;;;4.73;3.53;;;11.90;99.90;;;;;;5039235;28;20170;-82
2022/08/13 03:25:25;;;;;;;4.73;3.30;;;11.90;99.90;;;;;;5037686;28;20182;-81
2022/08/13 03:27:52;;;;;;;4.30;3.50;;;11.60;99.90;;;;;;5039941;28;20534;-82
2022/08/13 03:30:21;;;;;;;5.17;3.43;;;11.80;99.90;;;;;;5039966;28;20664;-81
2022/08/13 03:32:47;;;;;;;4.20;3.30;;;;;;;;;;5039583;28;20256;-81
2022/08/13 03:35:19;;;;;;;3.43;3.07;;;11.70;99.90;;;;;;5039501;28;20204;-81
2022/08/13 03:37:49;;;;;;;4.03;3.23;;;11.90;99.90;;;;;;5038158;28;20529;-82
2022/08/13 03:40:16;;;;;;;4.03;3.63;;;11.80;99.90;;;;;;5038608;28;20194;-81
2022/08/13 03:42:42;;;;;;;6.57;3.50;;;;;;;;;;5039740;28;20202;-81
2022/08/13 03:45:10;;;;;;;5.63;3.40;;;11.60;99.90;;;;;;5038583;28;20180;-82
2022/08/13 03:47:36;;;;;;;5.00;3.83;;;;;;;;;;5038403;28;20594;-81
2022/08/13 03:50:04;;;;;;;4.13;3.70;;;11.50;99.90;;;;;;5038065;28;20194;-81
2022/08/13 03:52:30;;;;;;;4.97;4.30;;;;;;;;;;5038898;28;20178;-82
2022/08/13 03:54:57;;;;;;;5.67;3.53;;;11.50;99.90;;;;;;5044111;28;20198;-81
2022/08/13 03:57:24;;;;;;;4.40;4.00;;;;;;;;;;5054576;28;20185;-81
2022/08/13 03:59:50;;;;;;;5.80;3.60;;;11.70;99.90;;;;;;5052896;28;20190;-82
2022/08/13 04:02:17;;;;;;;3.60;3.30;;;11.50;99.90;;;;;;5038191;28;20235;-81
2022/08/13 04:04:47;;;;;;;6.20;3.50;;;;;;;;;;5037560;28;20662;-82
2022/08/13 04:07:18;;;;;;;4.13;3.60;;;11.40;99.90;;;;;;5036707;28;20171;-81
2022/08/13 04:09:46;;;;;;;4.63;3.50;;;11.40;99.90;;;;;;5037106;28;20241;-82
2022/08/13 04:12:13;;;;;;;4.90;4.10;;;;;;;;;;5038409;28;20176;-82
2022/08/13 04:14:40;;;;;;;3.67;3.37;;;11.40;99.90;;;;;;5037108;28;20212;-81
2022/08/13 04:17:10;;;;;;;5.07;3.93;;;11.60;99.90;;;;;;5038891;28;20193;-82
2022/08/13 04:19:36;;;;;;;4.60;4.07;;;;;;;;;;5037783;28;20332;-82
2022/08/13 04:22:03;;;;;;;4.67;3.57;;;;;;;;;;5038982;28;20174;-82
2022/08/13 04:24:28;;;;;;;4.17;3.80;;;11.20;99.90;;;;;;5038954;28;20240;-82
2022/08/13 04:26:54;;;;;;;7.37;3.80;;;11.30;99.90;;;;;;5039895;28;20181;-82
2022/08/13 04:29:21;;;;;;;4.40;3.50;;;11.30;99.90;;;;;;5037841;28;20207;-82
2022/08/13 04:31:47;;;;;;;4.67;4.20;;;;;;;;;;5038335;28;20205;-82
2022/08/13 04:34:13;;;;;;;3.77;3.37;;;;;;;;;;5037912;28;20296;-81
2022/08/13 04:36:39;;;;;;;4.00;3.50;;;11.40;99.90;;;;;;5038459;28;20220;-82
2022/08/13 04:39:06;;;;;;;4.13;3.43;;;;;;;;;;5040049;28;20175;-81
2022/08/13 04:41:32;;;;;;;5.23;4.00;;;11.50;99.90;;;;;;5039626;28;20201;-82
2022/08/13 04:43:58;;;;;;;4.50;4.07;;;;;;;;;;5039173;28;20174;-82
2022/08/13 04:46:25;;;;;;;5.07;4.37;;;;;;;;;;5038397;28;20269;-82
2022/08/13 04:48:52;;;;;;;4.80;4.30;;;;;;;;;;5038411;28;20682;-82
2022/08/13 04:51:18;;;;;;;4.80;4.33;;;;;;;;;;5038879;28;20194;-82
2022/08/13 04:53:44;;;;;;;6.77;4.10;;;;;;;;;;5038862;28;20210;-82
2022/08/13 04:56:10;;;;;;;5.60;4.23;;;;;;;;;;5037714;28;20650;-82
2022/08/13 04:58:36;;;;;;;5.03;4.10;;;;;;;;;;5038515;28;20249;-82
2022/08/13 05:01:08;;;;;;;4.37;3.97;;;11.20;99.90;;;;;;5039004;28;20220;-82
2022/08/13 05:03:37;;;;;;;3.87;3.47;;;;;;;;;;5038312;28;20165;-81
2022/08/13 05:06:03;;;;;;;4.27;3.83;;;;;;;;;;5038133;28;20171;-81
2022/08/13 05:08:32;;;;;;;4.43;3.67;;;;;;;;;;5036534;28;20468;-82
2022/08/13 05:10:59;;;;;;;4.20;3.80;;;11.20;99.90;;;;;;5037956;28;20218;-81
2022/08/13 05:13:32;;;;;;;6.60;3.57;;;11.20;99.90;;;;;;5037319;28;20166;-82
2022/08/13 05:16:01;;;;;;;5.60;3.70;;;11.20;99.90;;;;;;5036551;28;20564;-82
2022/08/13 05:18:29;;;;;;;4.07;3.63;;;11.30;99.90;;;;;;5037852;28;20182;-81
2022/08/13 05:20:59;;;;;;;3.93;3.03;;;11.40;99.90;;;;;;5037401;28;20585;-82
2022/08/13 05:23:26;;;;;;;5.97;3.60;;;11.50;99.90;;;;;;5036355;28;20175;-82
2022/08/13 05:25:52;;;;;;;4.30;3.20;;;11.50;99.90;;;;;;5037946;28;20205;-82
2022/08/13 05:28:19;;;;;;;3.67;3.30;;;11.70;99.90;;;;;;5035907;28;20265;-82
2022/08/13 05:30:49;;;;;;;4.97;3.40;;;11.80;99.90;;;;;;5036790;28;20194;-82
2022/08/13 05:33:19;;;;;;;4.30;3.90;;;11.80;99.90;;;;;;5037316;28;20355;-82
2022/08/13 05:35:49;;;;;;;4.43;3.90;;;11.90;99.90;;;;;;5037333;28;20249;-82
2022/08/13 05:38:16;;;;;;;6.73;3.20;;;12.00;99.90;;;;;;5036455;28;20261;-82
2022/08/13 05:40:45;;;;;;;6.80;3.47;;;;;;;;;;5036178;28;20194;-83
2022/08/13 05:43:16;;;;;;;3.60;3.20;;;12.10;99.90;;;;;;5037881;28;20613;-83
2022/08/13 05:45:46;;;;;;;3.43;3.13;;;12.20;99.90;;;;;;5036839;28;20240;-83
2022/08/13 05:48:12;;;;;;;5.87;3.63;;;;;;;;;;5038225;28;20639;-83
2022/08/13 05:50:38;;;;;;;3.73;2.97;;;;;;;;;;5038737;28;20607;-83
2022/08/13 05:53:09;;;;;;;5.13;3.30;;;12.60;99.90;;;;;;5038085;28;20184;-83
2022/08/13 05:55:40;;;;;;;3.40;3.10;;;;;;;;;;5037576;28;20235;-83
2022/08/13 05:58:08;;;;;;;4.80;3.70;;;12.70;99.90;;;;;;5037448;28;20158;-82
2022/08/13 06:03:27;;;;;;;4.50;2.90;;;13.20;99.90;;;;;;5037437;28;20197;-82
2022/08/13 06:05:58;;;;;;;3.93;3.40;;;13.10;99.90;;;;;;5042995;28;20182;-82
2022/08/13 06:08:36;;;;;;;4.47;3.00;;;13.60;99.90;;;;;;5056001;28;20220;-83
2022/08/13 06:11:06;;;;;;;3.27;2.97;;;13.70;99.90;;;;;;5046277;28;20198;-83
2022/08/13 06:13:33;;;;;;;3.27;2.97;;;13.70;99.90;;;;;;5038310;28;20179;-83
2022/08/13 06:16:01;;;;;;;6.60;3.20;;;13.70;99.90;;;;;;5036595;28;20170;-82
2022/08/13 06:18:32;;;;;;;4.00;3.60;;;13.80;99.90;;;;;;5036711;28;20209;-84
2022/08/13 06:21:00;;;;;;;2.83;2.50;;;13.90;99.90;;;;;;5037658;28;20194;-82
2022/08/13 06:23:29;;;;;;;4.13;2.47;;;14.00;99.90;;;;;;5039972;28;20265;-82
2022/08/13 06:25:56;;;;;;;6.37;2.70;;;14.20;99.90;;;;;;5040660;28;20534;-82
2022/08/13 06:28:29;;;;;;;3.63;2.63;;;14.30;99.90;;;;;;5040717;28;20178;-82
2022/08/13 06:30:58;;;;;;;3.13;2.73;;;14.10;99.90;;;;;;5039591;28;20202;-81
2022/08/13 06:33:25;;;;;;;5.00;2.70;;;14.20;99.90;;;;;;5037853;28;20178;-82
2022/08/13 06:35:55;;;;;;;2.90;2.60;;;14.30;99.90;;;;;;5036784;28;20178;-82
2022/08/13 06:38:25;;;;;;;2.70;2.30;;;14.30;99.90;;;;;;5038308;28;20197;-82
2022/08/13 06:40:52;;;;;;;2.80;2.50;;;14.40;99.90;;;;;;5038581;28;20194;-82
2022/08/13 06:43:19;;;;;;;3.50;2.37;;;14.50;99.90;;;;;;5038424;28;20201;-82
2022/08/13 06:45:46;;;;;;;3.97;2.20;;;14.50;99.90;;;;;;5041988;28;20204;-82
2022/08/13 06:48:13;;;;;;;2.93;2.43;;;;;;;;;;5042276;28;20261;-83
2022/08/13 06:50:39;;;;;;;2.90;2.60;;;;;;;;;;5040869;28;20255;-82
2022/08/13 06:53:06;;;;;;;2.70;2.30;;;14.60;99.90;;;;;;5040084;28;20186;-82
2022/08/13 06:55:36;;;;;;;2.53;2.23;;;;;;;;;;5038729;28;20287;-82
2022/08/13 06:58:11;;;;;;;4.33;2.57;;;;;;;;;;5039849;28;20544;-82
2022/08/13 07:00:39;;;;;;;2.80;2.23;;;15.10;99.90;;;;;;5041669;28;20197;-81
2022/08/13 07:03:06;;;;;;;2.37;2.17;;;15.10;99.90;;;;;;5041740;28;20278;-82
2022/08/13 07:05:38;;;;;;;2.40;2.10;;;15.20;99.90;;;;;;5041643;28;20187;-82
2022/08/13 07:08:07;;;;;;;2.40;2.20;;;15.20;99.90;;;;;;5038904;28;20175;-81
2022/08/13 07:10:34;;;;;;;3.00;2.70;;;15.70;99.90;;;;;;5038143;28;20339;-81
2022/08/13 07:13:00;;;;;;;3.70;2.77;;;15.70;99.90;;;;;;5043497;28;20190;-83
2022/08/13 07:15:27;;;;;;;3.53;3.10;;;;;;;;;;5042618;28;20213;-82
2022/08/13 07:17:55;;;;;;;5.60;4.00;;;16.30;99.90;;;;;;5039644;28;20178;-78
2022/08/13 07:20:21;;;;;;;3.87;3.17;;;16.50;99.90;;;;;;5039059;28;20198;-79
2022/08/13 07:22:47;;;;;;;2.50;2.30;;;16.30;99.90;;;;;;5039994;28;20265;-78
2022/08/13 07:25:14;;;;;;;2.60;2.37;;;;;;;;;;5042306;28;20603;-79
2022/08/13 07:27:41;;;;;;;7.63;2.40;;;16.30;99.90;;;;;;5040952;28;20177;-80
2022/08/13 07:30:08;;;;;;;5.43;2.60;;;16.50;99.90;;;;;;5039603;28;20230;-78
2022/08/13 07:32:38;;;;;;;3.40;2.67;;;16.50;99.90;;;;;;5036507;28;20583;-79
2022/08/13 07:35:08;;;;;;;3.83;2.50;;;16.40;99.90;;;;;;5039987;28;20293;-79
2022/08/13 07:37:35;;;;;;;3.70;2.73;;;17.10;99.90;;;;;;5039884;28;20261;-78
2022/08/13 07:40:02;;;;;;;4.57;2.40;;;16.90;99.90;;;;;;5038844;28;20201;-79
2022/08/13 07:42:40;;;;;;;2.20;2.00;;;17.20;99.90;;;;;;5039790;28;20721;-78
2022/08/13 07:45:10;;;;;;;3.77;2.20;;;17.20;99.90;;;;;;5040744;28;20166;-78
2022/08/13 07:47:39;;;;;;;5.50;2.10;;;17.60;99.90;;;;;;5041543;28;20660;-79
2022/08/13 07:50:10;;;;;;;5.33;1.87;;;17.60;99.90;;;;;;5039995;28;20715;-78
2022/08/13 07:52:37;;;;;;;2.10;1.70;;;17.70;99.90;;;;;;5040720;28;20512;-78
2022/08/13 07:55:05;;;;;;;2.07;1.80;;;17.60;99.90;;;;;;5040237;28;20212;-80
2022/08/13 07:57:32;;;;;;;4.40;1.63;;;17.60;99.90;;;;;;5041877;28;20182;-81
2022/08/13 07:59:58;;;;;;;3.93;1.80;;;17.90;99.90;;;;;;5040104;28;20206;-80
2022/08/13 08:02:32;;;;;;;3.70;1.63;;;18.00;99.90;;;;;;5040662;28;20240;-81
2022/08/13 08:04:58;;;;;;;2.50;1.90;;;18.60;99.90;;;;;;5040300;28;20180;-81
2022/08/13 08:07:25;;;;;;;5.23;2.10;;;18.80;99.90;;;;;;5041467;28;20211;-80
2022/08/13 08:09:53;;;;;;;2.10;1.70;;;18.80;99.90;;;;;;5046989;28;20243;-79
2022/08/13 08:12:35;;;;;;;3.57;1.73;;;18.60;99.90;;;;;;5053539;28;20190;-80
2022/08/13 08:15:07;;;;;;;2.60;1.90;;;18.80;99.90;;;;;;5044846;28;20652;-80
2022/08/13 08:17:32;;;;;;;4.50;1.87;;;19.50;99.90;;;;;;5050702;28;20194;-79
2022/08/13 08:19:59;;;;;;;2.53;2.00;;;19.30;99.90;;;;;;5054166;28;20198;-79
2022/08/13 08:22:25;;;;;;;2.63;1.70;;;19.40;99.90;;;;;;5055866;28;20226;-80
2022/08/13 08:24:51;;;;;;;4.67;1.70;;;19.60;99.90;;;;;;5052307;28;20189;-80
2022/08/13 08:27:18;;;;;;;2.40;1.80;;;19.80;99.90;;;;;;5047098;28;20269;-83
2022/08/13 08:29:44;;;;;;;3.23;1.90;;;20.40;99.90;;;;;;5036759;28;20202;-78
2022/08/13 08:32:12;;;;;;;2.83;2.10;;;20.50;99.90;;;;;;5038770;28;20179;-81
2022/08/13 08:34:41;;;;;;;3.03;2.10;;;20.80;99.90;;;;;;5039273;28;20214;-79
2022/08/13 08:37:08;;;;;;;3.67;1.90;;;21.10;99.90;;;;;;5037554;28;20182;-78
2022/08/13 08:42:38;;;;;;;3.37;1.97;;;21.30;99.90;;;;;;5038028;28;20217;-78
2022/08/13 08:45:13;;;;;;;7.17;2.00;;;21.30;99.90;;;;;;5037755;28;20228;-78
2022/08/13 08:47:42;;;;;;;2.30;2.10;;;21.30;99.90;;;;;;5037251;28;20608;-78
2022/08/13 08:50:09;;;;;;;2.67;1.70;;;21.40;99.90;;;;;;5038510;28;20255;-79
2022/08/13 08:55:24;;;;;;;7.20;1.80;;;21.50;99.90;;;;;;5038801;28;20718;-79
2022/08/13 08:57:52;;;;;;;3.27;1.87;;;21.60;99.90;;;;;;5038324;28;20666;-79
2022/08/13 09:00:21;;;;;;;2.27;1.80;;;21.90;99.90;;;;;;5038769;28;20199;-79
2022/08/13 09:02:51;;;;;;;1.60;1.50;;;22.10;99.90;;;;;;5037229;28;20188;-79
2022/08/13 09:05:21;;;;;;;2.33;1.93;;;22.30;99.90;;;;;;5038259;28;20182;-78
2022/08/13 09:07:47;;;;;;;1.63;1.53;;;22.50;99.90;;;;;;5040363;28;20179;-82
2022/08/13 09:10:16;;;;;;;1.70;1.60;;;22.80;99.90;;;;;;5041560;28;20214;-80
2022/08/13 09:12:44;;;;;;;2.03;1.60;;;22.90;99.90;;;;;;5042584;28;20180;-83
2022/08/13 09:15:15;;;;;;;2.20;1.70;;;23.20;99.90;;;;;;5042084;28;20207;-81
2022/08/13 09:17:41;;;;;;;2.60;1.77;;;23.40;99.90;;;;;;5045156;28;20669;-82
2022/08/13 09:20:13;;;;;;;3.10;1.40;;;23.60;99.90;;;;;;5041904;28;20265;-81
2022/08/13 09:22:41;;;;;;;1.63;1.50;;;23.70;99.90;;;;;;5040721;28;20170;-83
2022/08/13 09:25:09;;;;;;;2.00;1.53;;;23.70;99.90;;;;;;5042549;28;20674;-83
2022/08/13 09:27:36;;;;;;;5.17;1.63;;;;;;;;;;5040154;28;20208;-82
2022/08/13 09:30:03;;;;;;;1.40;1.30;;;24.30;99.90;;;;;;5040466;28;20205;-82
2022/08/13 09:32:30;;;;;;;1.30;1.20;;;;;;;;;;5039262;28;20190;-83
2022/08/13 09:34:56;;;;;;;2.40;1.10;;;24.60;99.90;;;;;;5037506;28;20214;-82
2022/08/13 09:37:23;;;;;;;2.03;1.13;;;24.90;99.90;;;;;;5037370;28;20213;-82
2022/08/13 09:39:54;;;;;;;1.27;1.17;;;25.10;99.90;;;;;;5039087;28;20201;-82
2022/08/13 09:42:30;;;;;;;1.30;1.20;;;25.20;99.90;;;;;;5038668;28;20178;-82
2022/08/13 09:44:59;;;;;;;1.83;1.20;;;25.30;99.90;;;;;;5038526;28;20186;-82
2022/08/13 09:47:27;;;;;;;5.63;1.50;;;25.50;99.90;;;;;;5042147;28;20186;-81
2022/08/13 09:49:53;;;;;;;1.40;1.20;;;;;;;;;;5036874;28;20202;-82
2022/08/13 09:52:22;;;;;;;1.87;1.27;;;25.80;99.10;;;;;;5035598;28;20186;-81
2022/08/13 09:54:49;;;;;;;1.40;1.00;;;26.10;99.60;;;;;;5038706;28;20212;-81
2022/08/13 09:57:20;;;;;;;1.73;1.10;;;26.10;99.70;;;;;;5038299;28;20260;-81
2022/08/13 09:59:46;;;;;;;1.50;1.00;;;;;;;;;;5039841;28;20198;-81
2022/08/13 10:02:12;;;;;;;1.77;1.00;;;26.40;96.90;;;;;;5038841;28;20228;-82
2022/08/13 10:04:39;;;;;;;1.20;1.10;;;26.50;95.10;;;;;;5042466;28;20538;-82
2022/08/13 10:07:07;;;;;;;1.00;1.00;;;26.60;95.90;;;;;;5037934;28;20595;-82
2022/08/13 10:09:36;;;;;;;2.57;1.17;;;26.70;94.30;;;;;;5037743;28;20194;-82
2022/08/13 10:12:04;;;;;;;1.30;1.10;;;26.70;93.30;;;;;;5037468;28;20216;-82
2022/08/13 10:14:30;;;;;;;2.83;1.10;;;26.70;92.30;;;;;;5037783;28;20241;-82
2022/08/13 10:16:56;;;;;;;1.20;1.10;;;26.80;92.70;;;;;;5042714;28;20171;-83
2022/08/13 10:19:21;;;;;;;1.33;0.90;;;27.00;93.40;;;;;;5044241;28;20178;-82
2022/08/13 10:21:47;;;;;;;2.27;1.00;;;27.00;92.00;;;;;;5044815;28;20514;-82
2022/08/13 10:24:13;;;;;;;1.30;0.73;;;27.20;93.30;;;;;;5044852;28;20180;-82
2022/08/13 10:26:40;;;;;;;2.10;1.20;;;27.30;93.30;;;;;;5049375;28;20249;-82
2022/08/13 10:29:10;;;;;;;1.57;1.03;;;27.40;90.50;;;;;;5058860;28;20184;-82
2022/08/13 10:31:39;;;;;;;1.63;1.10;;;27.50;93.20;;;;;;5058881;28;20260;-82
2022/08/13 10:34:06;;;;;;;2.27;1.10;;;27.80;92.50;;;;;;5043040;28;20215;-81
2022/08/13 10:36:33;;;;;;;3.40;1.10;;;27.80;92.80;;;;;;5044107;28;20182;-81
2022/08/13 10:38:59;;;;;;;1.27;1.17;;;28.00;88.80;;;;;;5045511;28;20182;-82
2022/08/13 10:41:25;;;;;;;2.37;1.20;;;28.00;82.00;;;;;;5048353;28;20206;-82
2022/08/13 10:43:59;;;;;;;3.33;0.90;;;28.10;91.70;;;;;;5045553;28;20206;-82
2022/08/13 10:46:26;;;;;;;1.87;1.00;;;28.10;90.50;;;;;;5044992;28;20191;-82
2022/08/13 10:48:55;;;;;;;3.27;1.37;;;28.20;90.80;;;;;;5045163;28;20271;-82
2022/08/13 10:51:24;;;;;;;2.03;1.50;;;28.30;84.80;;;;;;5047335;28;20298;-82
2022/08/13 10:53:55;;;;;;;3.03;1.27;;;28.20;91.00;;;;;;5046264;28;20294;-82
2022/08/13 10:56:22;;;;;;;1.10;1.00;;;28.10;83.70;;;;;;5046235;28;20255;-82
2022/08/13 10:58:50;;;;;;;1.63;1.10;;;28.00;84.00;;;;;;5046835;28;20175;-81
2022/08/13 11:01:16;;;;;;;1.97;1.27;;;27.80;82.40;;;;;;5049738;28;20677;-81
2022/08/13 11:03:45;;;;;;;1.13;1.03;;;27.40;88.50;;;;;;5049043;28;20180;-80
2022/08/13 11:06:11;;;;;;;1.37;1.27;;;27.20;83.00;;;;;;5046793;28;20205;-81
2022/08/13 11:08:37;;;;;;;3.90;1.60;;;26.80;86.30;;;;;;5046375;28;20167;-80
2022/08/13 11:11:10;;;;;;;1.57;1.30;;;26.50;82.40;;;;;;5047146;28;20192;-79
2022/08/13 11:13:37;;;;;;;2.13;1.40;;;26.30;88.40;;;;;;5045336;28;20178;-80
2022/08/13 11:16:06;;;;;;;1.40;1.30;;;26.10;88.40;;;;;;5045014;28;20182;-80
2022/08/13 11:18:32;;;;;;;3.17;1.73;;;25.90;85.30;;;;;;5044540;28;20178;-81
2022/08/13 11:21:07;;;;;;;1.80;1.40;;;26.20;86.10;;;;;;5042897;28;20198;-81
2022/08/13 11:23:34;;;;;;;1.30;1.20;;;26.90;89.30;;;;;;5043813;28;20620;-81
2022/08/13 11:26:00;;;;;;;3.27;1.80;;;27.60;86.40;;;;;;5045039;28;20205;-81
2022/08/13 11:28:26;;;;;;;3.30;1.40;;;28.20;86.10;;;;;;5043243;28;20171;-82
2022/08/13 11:30:54;;;;;;;1.87;1.47;;;28.70;84.70;;;;;;5042469;28;20202;-81
2022/08/13 11:33:22;;;;;;;1.50;1.40;;;28.90;90.60;;;;;;5041364;28;20171;-80
2022/08/13 11:35:48;;;;;;;1.90;1.30;;;28.80;80.00;;;;;;5043075;28;20241;-81
2022/08/13 11:38:16;;;;;;;4.37;1.23;;;28.00;79.50;;;;;;5041145;28;20178;-81
2022/08/13 11:40:48;;;;;;;2.27;1.40;;;27.70;85.30;;;;;;5043853;28;20203;-81
2022/08/13 11:43:15;;;;;;;2.30;1.50;;;27.80;88.80;;;;;;5041621;28;20580;-81
2022/08/13 11:45:40;;;;;;;1.67;1.50;;;28.10;88.30;;;;;;5041299;28;20215;-81
2022/08/13 11:48:06;;;;;;;2.70;1.60;;;28.40;88.60;;;;;;5041864;28;20186;-81
2022/08/13 11:50:33;;;;;;;2.57;1.33;;;28.90;86.20;;;;;;5041713;28;20249;-81
2022/08/13 11:52:58;;;;;;;3.37;1.60;;;29.40;92.00;;;;;;5040250;28;20180;-80
2022/08/13 11:55:24;;;;;;;3.07;1.57;;;29.70;87.60;;;;;;5039860;28;20206;-80
2022/08/13 11:58:00;;;;;;;3.30;1.47;;;29.90;80.10;;;;;;5040573;28;20187;-79
2022/08/13 12:00:26;;;;;;;5.00;1.83;;;29.80;82.30;;;;;;5039640;28;20221;-78
2022/08/13 12:02:52;;;;;;;3.40;1.63;;;29.90;81.20;;;;;;5039120;28;20193;-80
2022/08/13 12:05:18;;;;;;;1.70;1.40;;;30.10;85.50;;;;;;5040522;28;20293;-79
2022/08/13 12:07:44;;;;;;;1.73;1.40;;;30.40;84.20;;;;;;5041384;28;20636;-79
2022/08/13 12:10:10;;;;;;;1.63;1.53;;;30.80;80.90;;;;;;5040560;28;20584;-79
2022/08/13 12:12:36;;;;;;;3.03;1.57;;;30.80;87.90;;;;;;5040690;28;20185;-79
2022/08/13 12:15:02;;;;;;;2.90;1.67;;;30.70;81.20;;;;;;5041088;28;20296;-79
2022/08/13 12:17:28;;;;;;;2.10;1.23;;;30.40;76.30;;;;;;5041569;28;20575;-80
2022/08/13 12:19:54;;;;;;;1.57;1.37;;;30.10;83.10;;;;;;5041150;28;20253;-79
2022/08/13 12:22:20;;;;;;;2.17;1.40;;;29.90;82.00;;;;;;5041285;28;20187;-79
2022/08/13 12:24:45;;;;;;;1.93;1.73;;;29.30;79.80;;;;;;5040560;28;20186;-79
2022/08/13 12:27:11;;;;;;;1.90;1.50;;;28.90;85.00;;;;;;5041309;28;20182;-79
2022/08/13 12:29:37;;;;;;;1.87;1.40;;;29.00;75.90;;;;;;5041784;28;20175;-80
2022/08/13 12:32:02;;;;;;;1.30;1.20;;;29.00;82.00;;;;;;5043744;28;20261;-79
2022/08/13 12:34:28;;;;;;;3.30;1.40;;;29.20;83.60;;;;;;5044239;28;20207;-79
2022/08/13 12:36:54;;;;;;;1.67;1.30;;;29.00;81.40;;;;;;5048402;28;20172;-80
2022/08/13 12:39:19;;;;;;;1.63;1.53;;;28.70;77.60;;;;;;5052077;28;20179;-79
2022/08/13 12:41:45;;;;;;;2.27;1.50;;;28.30;87.60;;;;;;5046489;28;20584;-79
2022/08/13 12:44:11;;;;;;;1.60;1.10;;;27.90;87.20;;;;;;5042501;28;20279;-81
2022/08/13 12:46:36;;;;;;;5.43;1.53;;;27.50;79.70;;;;;;5037589;28;20183;-81
2022/08/13 12:49:07;;;;;;;5.07;1.37;;;27.30;81.10;;;;;;5039617;28;20181;-81
2022/08/13 12:51:33;;;;;;;1.30;1.20;;;27.20;78.40;;;;;;5037054;28;20209;-80
2022/08/13 12:53:58;;;;;;;5.40;1.47;;;27.20;86.60;;;;;;5038307;28;20211;-80
2022/08/13 12:56:24;;;;;;;1.67;1.40;;;27.10;81.20;;;;;;5038639;28;20181;-80
2022/08/13 12:58:50;;;;;;;3.87;1.40;;;27.40;81.90;;;;;;5038185;28;20195;-81
2022/08/13 13:01:15;;;;;;;4.40;1.50;;;27.60;85.80;;;;;;5039458;28;20201;-81
2022/08/13 13:03:41;;;;;;;1.97;1.43;;;27.80;86.90;;;;;;5038384;28;20180;-81
2022/08/13 13:06:07;;;;;;;2.07;1.37;;;27.80;85.50;;;;;;5039307;28;20181;-81
2022/08/13 13:08:32;;;;;;;1.87;1.20;;;27.60;83.50;;;;;;5037241;28;20215;-82
2022/08/13 13:11:02;;;;;;;1.60;1.50;;;27.50;82.60;;;;;;5037999;28;20191;-81
2022/08/13 13:13:27;;;;;;;2.60;1.40;;;27.70;82.60;;;;;;5039671;28;20229;-81
2022/08/13 13:15:55;;;;;;;1.50;1.40;;;28.10;81.80;;;;;;5037697;28;20298;-81
2022/08/13 13:18:25;;;;;;;2.40;1.40;;;28.60;81.30;;;;;;5039401;28;20184;-81
2022/08/13 13:20:52;;;;;;;1.50;1.30;;;29.30;82.40;;;;;;5039541;28;20197;-82
2022/08/13 13:23:20;;;;;;;2.23;1.60;;;29.40;80.10;;;;;;5037960;28;20200;-81